createdAt,value
2019-02-05T00:00:01.620Z,41.09
2019-02-05T00:01:01.686Z,41.1
2019-02-05T00:02:02.046Z,41.09
2019-02-05T00:03:01.987Z,41.1
2019-02-05T00:04:01.951Z,41.11
2019-02-05T00:05:04.324Z,41.11
2019-02-05T00:06:01.595Z,41.07
2019-02-05T00:07:02.119Z,41.1
2019-02-05T00:08:01.804Z,41.08
2019-02-05T00:09:01.924Z,41.11
2019-02-05T00:10:02.090Z,41.1
2019-02-05T00:11:01.605Z,41.04
2019-02-05T00:12:02.050Z,41.07
2019-02-05T00:13:04.995Z,41.07
2019-02-05T00:14:01.747Z,41.08
2019-02-05T00:15:01.640Z,41.09
2019-02-05T00:16:01.939Z,41.12
2019-02-05T00:17:01.572Z,41.13
2019-02-05T00:18:01.901Z,41.12
2019-02-05T00:19:01.987Z,41.09
2019-02-05T00:20:01.678Z,41.12
2019-02-05T00:21:02.553Z,41.12
2019-02-05T00:22:02.114Z,41.13
2019-02-05T00:23:01.610Z,41.12
2019-02-05T00:24:01.794Z,41.12
2019-02-05T00:25:01.900Z,41.12
2019-02-05T00:26:06.945Z,41.09
2019-02-05T00:27:01.590Z,41.08
2019-02-05T00:28:02.235Z,41.08
2019-02-05T00:29:01.603Z,41.09
2019-02-05T00:30:02.060Z,41.18
2019-02-05T00:31:01.767Z,41.11
2019-02-05T00:32:02.264Z,41.08
2019-02-05T00:33:01.970Z,41.1
2019-02-05T00:34:02.252Z,41.09
2019-02-05T00:35:01.952Z,41.1
2019-02-05T00:36:03.619Z,41.11
2019-02-05T00:37:02.010Z,41.11
2019-02-05T00:38:01.595Z,41.1
2019-02-05T00:39:01.609Z,41.13
2019-02-05T00:40:02.126Z,41.1
2019-02-05T00:41:01.694Z,41.11
2019-02-05T00:42:01.938Z,41.11
2019-02-05T00:43:01.581Z,41.06
2019-02-05T00:44:04.086Z,41.11
2019-02-05T00:45:01.816Z,41.08
2019-02-05T00:46:01.799Z,41.08
2019-02-05T00:47:02.170Z,41.05
2019-02-05T00:48:01.978Z,41.05
2019-02-05T00:49:01.648Z,41.07
2019-02-05T00:50:02.044Z,41.1
2019-02-05T00:51:02.395Z,41.08
2019-02-05T00:52:04.349Z,41.12
2019-02-05T00:53:01.893Z,41.13
2019-02-05T00:54:02.428Z,41.12
2019-02-05T00:55:01.813Z,41.13
2019-02-05T00:56:01.622Z,41.08
2019-02-05T00:57:01.797Z,41.13
2019-02-05T00:58:01.650Z,41.08
2019-02-05T00:59:01.637Z,41.08
2019-02-05T01:00:02.019Z,41.08
2019-02-05T01:01:01.730Z,41.08
2019-02-05T01:02:01.862Z,41.13
2019-02-05T01:03:02.146Z,41.16
2019-02-05T01:04:02.131Z,41.13
2019-02-05T01:05:01.995Z,41.12
2019-02-05T01:06:02.757Z,41.08
2019-02-05T01:07:03.773Z,41.11
2019-02-05T01:08:01.804Z,41.14
2019-02-05T01:09:01.601Z,41.12
2019-02-05T01:10:02.027Z,41.1
2019-02-05T01:11:02.089Z,41.12
2019-02-05T01:12:01.677Z,41.1
2019-02-05T01:13:01.973Z,41.09
2019-02-05T01:14:02.138Z,41.08
2019-02-05T01:15:04.206Z,41.07
2019-02-05T01:16:01.671Z,41.03
2019-02-05T01:17:02.196Z,41.11
2019-02-05T01:18:01.931Z,41.12
2019-02-05T01:19:01.869Z,41.1
2019-02-05T01:20:01.787Z,41.11
2019-02-05T01:21:01.924Z,41.07
2019-02-05T01:22:02.025Z,41.07
2019-02-05T01:23:04.573Z,41.07
2019-02-05T01:24:02.046Z,41.1
2019-02-05T01:25:02.036Z,41.1
2019-02-05T01:26:01.571Z,41.12
2019-02-05T01:27:02.076Z,41.11
2019-02-05T01:28:01.646Z,41.13
2019-02-05T01:29:01.500Z,41.08
2019-02-05T01:30:02.315Z,41.12
2019-02-05T01:31:04.525Z,41.08
2019-02-05T01:32:01.842Z,41.11
2019-02-05T01:33:01.564Z,41.09
2019-02-05T01:34:02.068Z,41.09
2019-02-05T01:35:01.763Z,41.05
2019-02-05T01:36:02.270Z,41.11
2019-02-05T01:37:01.938Z,41.07
2019-02-05T01:38:01.608Z,41.11
2019-02-05T01:39:01.642Z,41.11
2019-02-05T01:40:01.586Z,41.09
2019-02-05T01:41:02.600Z,41.16
2019-02-05T01:42:03.261Z,41.13
2019-02-05T01:43:02.563Z,41.09
2019-02-05T01:44:01.960Z,41.09
2019-02-05T01:45:02.603Z,41.13
2019-02-05T01:46:02.365Z,41.13
2019-02-05T01:47:01.771Z,41.13
2019-02-05T01:48:01.937Z,41.08
2019-02-05T01:49:01.492Z,41.17
2019-02-05T01:50:01.651Z,41.07
2019-02-05T01:51:02.442Z,41.06
2019-02-05T01:52:01.806Z,41.12
2019-02-05T01:53:01.638Z,41.09
2019-02-05T01:54:04.074Z,41.05
2019-02-05T01:55:01.994Z,41.07
2019-02-05T01:56:01.614Z,41.09
2019-02-05T01:57:01.997Z,41.05
2019-02-05T01:58:02.099Z,41.13
2019-02-05T01:59:01.765Z,41.1
2019-02-05T02:00:01.893Z,41.06
2019-02-05T02:01:01.914Z,41.07
2019-02-05T02:02:04.336Z,41.1
2019-02-05T02:03:02.018Z,41.08
2019-02-05T02:04:01.520Z,41.12
2019-02-05T02:05:01.735Z,41.11
2019-02-05T02:06:02.059Z,41.07
2019-02-05T02:07:01.705Z,41.1
2019-02-05T02:08:01.894Z,41.09
2019-02-05T02:09:02.520Z,41.1
2019-02-05T02:10:01.627Z,41.15
2019-02-05T02:11:02.021Z,41.06
2019-02-05T02:12:01.904Z,41.1
2019-02-05T02:13:02.268Z,41.07
2019-02-05T02:14:01.793Z,41.12
2019-02-05T02:15:01.903Z,41.07
2019-02-05T02:16:01.991Z,41.09
2019-02-05T02:17:03.930Z,41.09
2019-02-05T02:18:02.241Z,41.08
2019-02-05T02:19:01.952Z,41.08
2019-02-05T02:20:02.196Z,41.06
2019-02-05T02:21:01.839Z,41.09
2019-02-05T02:22:01.542Z,41.08
2019-02-05T02:23:01.532Z,41.09
2019-02-05T02:24:01.615Z,41.08
2019-02-05T02:25:04.296Z,41.05
2019-02-05T02:26:01.764Z,41.06
2019-02-05T02:27:01.442Z,41.06
2019-02-05T02:28:01.599Z,41.05
2019-02-05T02:29:02.284Z,41.01
2019-02-05T02:30:01.799Z,41.08
2019-02-05T02:31:01.658Z,41.04
2019-02-05T02:32:02.321Z,41.04
2019-02-05T02:33:02.033Z,41.05
2019-02-05T02:34:01.887Z,41.03
2019-02-05T02:35:02.195Z,41.06
2019-02-05T02:36:01.638Z,41.05
2019-02-05T02:37:01.670Z,41.06
2019-02-05T02:38:01.698Z,41.1
2019-02-05T02:39:01.882Z,41.05
2019-02-05T02:40:03.829Z,41.05
2019-02-05T02:41:01.864Z,41.07
2019-02-05T02:42:01.990Z,41.06
2019-02-05T02:43:01.965Z,41.01
2019-02-05T02:44:01.497Z,41.05
2019-02-05T02:45:02.202Z,41.02
2019-02-05T02:46:01.962Z,41.05
2019-02-05T02:47:01.542Z,41.03
2019-02-05T02:48:04.244Z,41.02
2019-02-05T02:49:01.729Z,41.06
2019-02-05T02:50:01.605Z,41.05
2019-02-05T02:51:01.756Z,41.02
2019-02-05T02:52:02.149Z,40.99
2019-02-05T02:53:01.916Z,41.05
2019-02-05T02:54:02.017Z,41.03
2019-02-05T02:55:01.575Z,40.99
2019-02-05T02:56:04.416Z,41.02
2019-02-05T02:57:05.441Z,41.08
2019-02-05T02:58:02.011Z,41.01
2019-02-05T02:59:01.950Z,40.98
2019-02-05T03:00:01.748Z,40.99
2019-02-05T03:01:01.808Z,40.96
2019-02-05T03:02:01.545Z,41.01
2019-02-05T03:03:03.338Z,40.99
2019-02-05T03:04:02.147Z,41.03
2019-02-05T03:05:01.842Z,41.04
2019-02-05T03:06:02.112Z,41.05
2019-02-05T03:07:02.291Z,41.01
2019-02-05T03:08:02.002Z,41.01
2019-02-05T03:09:02.603Z,41
2019-02-05T03:10:02.023Z,41
2019-02-05T03:11:02.579Z,41.06
2019-02-05T03:12:01.616Z,41.05
2019-02-05T03:13:02.501Z,41
2019-02-05T03:14:01.630Z,41.09
2019-02-05T03:15:02.138Z,41
2019-02-05T03:16:01.837Z,41
2019-02-05T03:17:01.795Z,41.04
2019-02-05T03:18:04.474Z,41.05
2019-02-05T03:19:01.895Z,41.02
2019-02-05T03:20:01.753Z,41.01
2019-02-05T03:21:01.843Z,41.04
2019-02-05T03:22:01.700Z,41
2019-02-05T03:23:02.156Z,41.06
2019-02-05T03:24:02.205Z,41.02
2019-02-05T03:25:04.318Z,41.01
2019-02-05T03:26:02.195Z,41
2019-02-05T03:27:01.749Z,40.97
2019-02-05T03:28:01.476Z,41
2019-02-05T03:29:02.020Z,41.01
2019-02-05T03:30:02.127Z,40.98
2019-02-05T03:31:02.125Z,41.01
2019-02-05T03:32:04.186Z,40.98
2019-02-05T03:33:02.205Z,41.05
2019-02-05T03:34:01.840Z,41.01
2019-02-05T03:35:01.734Z,40.99
2019-02-05T03:36:01.818Z,40.99
2019-02-05T03:37:01.669Z,40.94
2019-02-05T03:38:01.655Z,41.01
2019-02-05T03:39:01.701Z,41.03
2019-02-05T03:40:01.501Z,40.96
2019-02-05T03:41:02.088Z,40.96
2019-02-05T03:42:02.224Z,40.98
2019-02-05T03:43:01.520Z,40.98
2019-02-05T03:44:01.946Z,40.96
2019-02-05T03:45:01.546Z,40.96
2019-02-05T03:46:01.599Z,40.98
2019-02-05T03:47:04.472Z,40.99
2019-02-05T03:48:02.330Z,40.95
2019-02-05T03:49:01.519Z,40.98
2019-02-05T03:50:01.881Z,40.96
2019-02-05T03:51:02.183Z,41
2019-02-05T03:52:01.522Z,40.99
2019-02-05T03:53:01.857Z,40.94
2019-02-05T03:54:04.217Z,40.97
2019-02-05T03:55:01.979Z,40.99
2019-02-05T03:56:01.683Z,41.01
2019-02-05T03:57:02.258Z,40.99
2019-02-05T03:58:01.600Z,40.95
2019-02-05T03:59:01.659Z,41.04
2019-02-05T04:00:01.546Z,40.99
2019-02-05T04:01:01.547Z,41
2019-02-05T04:02:05.093Z,40.99
2019-02-05T04:03:02.359Z,40.97
2019-02-05T04:04:01.684Z,40.96
2019-02-05T04:05:02.240Z,40.96
2019-02-05T04:06:02.180Z,40.91
2019-02-05T04:07:01.880Z,40.97
2019-02-05T04:08:01.750Z,40.95
2019-02-05T04:09:01.636Z,40.91
2019-02-05T04:10:01.993Z,40.96
2019-02-05T04:11:01.792Z,40.99
2019-02-05T04:12:02.204Z,40.99
2019-02-05T04:13:02.051Z,41.01
2019-02-05T04:14:02.152Z,41.02
2019-02-05T04:15:01.618Z,41
2019-02-05T04:16:02.026Z,40.92
2019-02-05T04:17:03.971Z,40.97
2019-02-05T04:18:01.913Z,40.96
2019-02-05T04:19:02.050Z,40.92
2019-02-05T04:20:01.962Z,40.93
2019-02-05T04:21:01.591Z,40.95
2019-02-05T04:22:02.009Z,40.95
2019-02-05T04:23:02.346Z,40.93
2019-02-05T04:24:01.751Z,40.92
2019-02-05T04:25:04.846Z,40.98
2019-02-05T04:26:01.884Z,40.95
2019-02-05T04:27:01.579Z,41.01
2019-02-05T04:28:01.645Z,40.96
2019-02-05T04:29:02.346Z,40.95
2019-02-05T04:30:01.879Z,40.97
2019-02-05T04:31:01.484Z,40.93
2019-02-05T04:32:02.157Z,40.95
2019-02-05T04:33:02.008Z,40.96
2019-02-05T04:34:02.592Z,40.94
2019-02-05T04:35:01.900Z,40.97
2019-02-05T04:36:02.147Z,40.95
2019-02-05T04:37:02.734Z,40.93
2019-02-05T04:38:01.941Z,40.96
2019-02-05T04:39:01.999Z,40.93
2019-02-05T04:40:03.726Z,40.99
2019-02-05T04:41:01.931Z,40.96
2019-02-05T04:42:02.134Z,40.95
2019-02-05T04:43:01.759Z,40.99
2019-02-05T04:44:01.637Z,40.95
2019-02-05T04:45:01.513Z,41.03
2019-02-05T04:46:01.607Z,41
2019-02-05T04:47:03.430Z,41
2019-02-05T04:48:04.194Z,41.02
2019-02-05T04:49:02.106Z,41.1
2019-02-05T04:50:01.565Z,41.1
2019-02-05T04:51:01.678Z,41.1
2019-02-05T04:52:02.011Z,41.12
2019-02-05T04:53:01.495Z,41.09
2019-02-05T04:54:01.776Z,41.05
2019-02-05T04:55:01.717Z,41.01
2019-02-05T04:56:01.957Z,41.01
2019-02-05T04:57:01.937Z,41.02
2019-02-05T04:58:02.203Z,41.01
2019-02-05T04:59:03.437Z,41.04
2019-02-05T05:00:01.782Z,41.1
2019-02-05T05:01:01.486Z,41.13
2019-02-05T05:02:01.656Z,41.14
2019-02-05T05:03:03.991Z,41.16
2019-02-05T05:04:01.694Z,41.14
2019-02-05T05:05:01.507Z,41.17
2019-02-05T05:06:02.210Z,41.12
2019-02-05T05:07:01.563Z,41.18
2019-02-05T05:08:01.573Z,41.17
2019-02-05T05:09:02.158Z,41.19
2019-02-05T05:10:01.656Z,41.09
2019-02-05T05:11:04.048Z,41.13
2019-02-05T05:12:01.884Z,41.13
2019-02-05T05:13:01.544Z,41.07
2019-02-05T05:14:02.072Z,41.03
2019-02-05T05:15:01.928Z,41.09
2019-02-05T05:16:01.631Z,41.04
2019-02-05T05:17:01.498Z,40.95
2019-02-05T05:18:03.793Z,40.93
2019-02-05T05:19:01.641Z,40.95
2019-02-05T05:20:01.722Z,40.9
2019-02-05T05:21:01.976Z,40.94
2019-02-05T05:22:01.604Z,40.94
2019-02-05T05:23:01.563Z,40.88
2019-02-05T05:24:01.734Z,40.91
2019-02-05T05:25:01.741Z,40.85
2019-02-05T05:26:01.931Z,40.82
2019-02-05T05:27:01.961Z,40.86
2019-02-05T05:28:10.879Z,40.85
2019-02-05T05:29:01.794Z,40.87
2019-02-05T05:30:01.709Z,40.85
2019-02-05T05:31:02.154Z,40.82
2019-02-05T05:32:01.844Z,40.83
2019-02-05T05:33:04.308Z,40.82
2019-02-05T05:34:01.464Z,40.9
2019-02-05T05:35:02.006Z,40.82
2019-02-05T05:36:01.780Z,40.82
2019-02-05T05:37:01.613Z,40.85
2019-02-05T05:38:02.005Z,40.82
2019-02-05T05:39:02.255Z,40.78
2019-02-05T05:40:01.806Z,40.79
2019-02-05T05:41:02.533Z,40.83
2019-02-05T05:42:01.976Z,40.81
2019-02-05T05:43:01.692Z,40.83
2019-02-05T05:44:01.707Z,40.78
2019-02-05T05:45:01.755Z,40.81
2019-02-05T05:46:02.182Z,40.85
2019-02-05T05:47:01.981Z,40.83
2019-02-05T05:48:04.107Z,40.8
2019-02-05T05:49:02.006Z,40.87
2019-02-05T05:50:01.641Z,40.83
2019-02-05T05:51:01.734Z,40.79
2019-02-05T05:52:01.935Z,40.83
2019-02-05T05:53:01.950Z,40.81
2019-02-05T05:54:01.477Z,40.79
2019-02-05T05:55:03.134Z,40.79
2019-02-05T05:56:02.030Z,40.76
2019-02-05T05:57:01.724Z,40.81
2019-02-05T05:58:03.408Z,40.8
2019-02-05T05:59:02.429Z,40.76
2019-02-05T06:00:03.241Z,40.79
2019-02-05T06:01:03.135Z,40.78
2019-02-05T06:02:01.922Z,40.78
2019-02-05T06:03:04.627Z,40.78
2019-02-05T06:04:03.562Z,40.81
2019-02-05T06:05:01.647Z,40.75
2019-02-05T06:06:01.583Z,40.73
2019-02-05T06:07:01.557Z,40.77
2019-02-05T06:08:01.759Z,40.76
2019-02-05T06:09:01.929Z,40.77
2019-02-05T06:10:07.354Z,40.77
2019-02-05T06:11:01.739Z,40.76
2019-02-05T06:12:01.962Z,40.74
2019-02-05T06:13:01.740Z,40.75
2019-02-05T06:14:02.110Z,40.72
2019-02-05T06:15:01.851Z,40.71
2019-02-05T06:16:01.927Z,40.62
2019-02-05T06:17:02.029Z,40.39
2019-02-05T06:18:06.885Z,40.41
2019-02-05T06:19:01.781Z,40.53
2019-02-05T06:20:02.035Z,40.51
2019-02-05T06:21:01.496Z,40.53
2019-02-05T06:22:01.487Z,40.63
2019-02-05T06:23:01.659Z,40.56
2019-02-05T06:24:01.766Z,40.72
2019-02-05T06:25:03.350Z,40.64
2019-02-05T06:26:01.780Z,40.82
2019-02-05T06:27:02.083Z,41.33
2019-02-05T06:28:01.480Z,41.25
2019-02-05T06:29:01.730Z,41.34
2019-02-05T06:30:02.276Z,41.28
2019-02-05T06:31:01.601Z,41.26
2019-02-05T06:32:01.525Z,41.22
2019-02-05T06:33:04.535Z,41.19
2019-02-05T06:34:01.438Z,41.28
2019-02-05T06:35:01.526Z,41.42
2019-02-05T06:36:01.368Z,41.38
2019-02-05T06:37:01.604Z,41.05
2019-02-05T06:38:01.838Z,41.09
2019-02-05T06:39:01.732Z,40.93
2019-02-05T06:40:03.664Z,40.92
2019-02-05T06:41:01.653Z,40.87
2019-02-05T06:42:02.963Z,40.84
2019-02-05T06:43:01.512Z,40.89
2019-02-05T06:44:01.674Z,40.96
2019-02-05T06:45:01.421Z,40.97
2019-02-05T06:46:01.612Z,40.77
2019-02-05T06:47:01.426Z,40.73
2019-02-05T06:48:01.564Z,40.68
2019-02-05T06:49:01.836Z,40.71
2019-02-05T06:50:01.382Z,40.68
2019-02-05T06:51:01.660Z,40.67
2019-02-05T06:52:01.517Z,40.63
2019-02-05T06:53:01.387Z,40.64
2019-02-05T06:54:01.629Z,40.64
2019-02-05T06:55:03.978Z,40.61
2019-02-05T06:56:01.886Z,40.62
2019-02-05T06:57:01.521Z,40.63
2019-02-05T06:58:01.589Z,40.57
2019-02-05T06:59:01.599Z,40.58
2019-02-05T07:00:01.554Z,40.54
2019-02-05T07:01:01.801Z,40.49
2019-02-05T07:02:01.503Z,40.53
2019-02-05T07:03:01.626Z,40.55
2019-02-05T07:04:02.145Z,40.52
2019-02-05T07:05:02.036Z,40.51
2019-02-05T07:06:02.005Z,40.51
2019-02-05T07:07:02.194Z,40.48
2019-02-05T07:08:01.764Z,40.43
2019-02-05T07:09:01.496Z,40.45
2019-02-05T07:10:03.981Z,40.47
2019-02-05T07:11:01.733Z,40.43
2019-02-05T07:12:01.564Z,40.42
2019-02-05T07:13:03.581Z,40.36
2019-02-05T07:14:01.435Z,40.4
2019-02-05T07:15:02.147Z,40.38
2019-02-05T07:16:02.191Z,40.38
2019-02-05T07:17:02.669Z,40.37
2019-02-05T07:18:01.718Z,40.43
2019-02-05T07:19:01.694Z,40.4
2019-02-05T07:20:01.561Z,40.47
2019-02-05T07:21:01.466Z,40.46
2019-02-05T07:22:01.990Z,40.42
2019-02-05T07:23:02.145Z,40.45
2019-02-05T07:24:01.910Z,40.43
2019-02-05T07:25:05.317Z,40.49
2019-02-05T07:26:01.482Z,40.43
2019-02-05T07:27:01.458Z,40.4
2019-02-05T07:28:01.646Z,40.45
2019-02-05T07:29:02.561Z,40.43
2019-02-05T07:30:02.047Z,40.49
2019-02-05T07:31:01.835Z,40.51
2019-02-05T07:32:03.479Z,40.42
2019-02-05T07:33:02.203Z,40.45
2019-02-05T07:34:02.002Z,40.5
2019-02-05T07:35:01.914Z,40.47
2019-02-05T07:36:01.514Z,40.43
2019-02-05T07:37:01.708Z,40.5
2019-02-05T07:38:02.119Z,40.51
2019-02-05T07:39:03.320Z,40.5
2019-02-05T07:40:02.310Z,40.47
2019-02-05T07:41:02.559Z,40.46
2019-02-05T07:42:01.729Z,40.52
2019-02-05T07:43:01.895Z,40.43
2019-02-05T07:44:01.974Z,40.5
2019-02-05T07:45:01.883Z,40.41
2019-02-05T07:46:03.420Z,40.47
2019-02-05T07:47:01.574Z,40.44
2019-02-05T07:48:01.529Z,40.49
2019-02-05T07:49:01.458Z,40.42
2019-02-05T07:50:01.482Z,40.41
2019-02-05T07:51:01.451Z,40.45
2019-02-05T07:52:01.602Z,40.38
2019-02-05T07:53:01.576Z,40.42
2019-02-05T07:54:01.757Z,40.4
2019-02-05T07:55:01.424Z,40.5
2019-02-05T07:56:01.691Z,40.45
2019-02-05T07:57:01.960Z,40.42
2019-02-05T07:58:01.410Z,40.44
2019-02-05T07:59:10.950Z,40.41
2019-02-05T08:00:01.763Z,40.45
2019-02-05T08:01:04.450Z,40.4
2019-02-05T08:02:03.764Z,40.39
2019-02-05T08:03:01.699Z,40.4
2019-02-05T08:04:01.729Z,40.45
2019-02-05T08:05:02.325Z,40.37
2019-02-05T08:06:01.535Z,40.36
2019-02-05T08:07:01.918Z,40.36
2019-02-05T08:08:03.986Z,40.35
2019-02-05T08:09:01.501Z,40.42
2019-02-05T08:10:01.724Z,40.4
2019-02-05T08:11:01.383Z,40.35
2019-02-05T08:12:01.539Z,40.38
2019-02-05T08:13:01.622Z,40.32
2019-02-05T08:14:01.430Z,40.33
2019-02-05T08:15:04.242Z,40.34
2019-02-05T08:16:01.799Z,40.29
2019-02-05T08:17:02.113Z,40.28
2019-02-05T08:18:01.348Z,40.3
2019-02-05T08:19:02.028Z,40.29
2019-02-05T08:20:01.936Z,40.27
2019-02-05T08:21:01.718Z,40.28
2019-02-05T08:22:04.496Z,40.24
2019-02-05T08:23:01.957Z,40.32
2019-02-05T08:24:01.503Z,40.29
2019-02-05T08:25:01.658Z,40.23
2019-02-05T08:26:01.779Z,40.24
2019-02-05T08:27:01.662Z,40.3
2019-02-05T08:28:01.686Z,40.36
2019-02-05T08:29:03.935Z,40.22
2019-02-05T08:30:01.704Z,40.27
2019-02-05T08:31:01.563Z,40.25
2019-02-05T08:32:01.645Z,40.22
2019-02-05T08:33:01.824Z,40.23
2019-02-05T08:34:03.815Z,40.21
2019-02-05T08:35:01.605Z,40.26
2019-02-05T08:36:01.614Z,40.21
2019-02-05T08:37:01.513Z,40.21
2019-02-05T08:38:01.830Z,40.29
2019-02-05T08:39:01.522Z,40.24
2019-02-05T08:40:01.750Z,40.24
2019-02-05T08:41:02.238Z,40.21
2019-02-05T08:42:01.863Z,40.22
2019-02-05T08:43:01.584Z,40.2
2019-02-05T08:44:03.939Z,40.2
2019-02-05T08:45:01.397Z,40.29
2019-02-05T08:46:01.906Z,40.28
2019-02-05T08:47:02.003Z,40.29
2019-02-05T08:48:01.824Z,40.23
2019-02-05T08:49:01.474Z,40.19
2019-02-05T08:50:01.659Z,40.18
2019-02-05T08:51:03.886Z,40.46
2019-02-05T08:52:01.902Z,40.42
2019-02-05T08:53:02.516Z,40.5
2019-02-05T08:54:01.964Z,40.58
2019-02-05T08:55:01.643Z,40.61
2019-02-05T08:56:01.675Z,40.59
2019-02-05T08:57:01.644Z,40.55
2019-02-05T08:58:03.051Z,40.62
2019-02-05T08:59:02.487Z,40.65
2019-02-05T09:00:01.936Z,40.56
2019-02-05T09:01:01.710Z,40.51
2019-02-05T09:02:01.624Z,40.56
2019-02-05T09:03:01.533Z,40.61
2019-02-05T09:04:01.746Z,40.53
2019-02-05T09:05:02.051Z,40.16
2019-02-05T09:06:02.254Z,40.14
2019-02-05T09:07:01.498Z,40.07
2019-02-05T09:08:03.222Z,39.77
2019-02-05T09:09:01.495Z,39.57
2019-02-05T09:10:01.578Z,39.54
2019-02-05T09:11:01.524Z,39.54
2019-02-05T09:12:01.561Z,39.48
2019-02-05T09:13:04.455Z,39.46
2019-02-05T09:14:14.673Z,39.37
2019-02-05T09:15:01.603Z,39.32
2019-02-05T09:16:01.667Z,39.24
2019-02-05T09:17:01.936Z,39.33
2019-02-05T09:18:01.629Z,39.34
2019-02-05T09:19:01.757Z,39.31
2019-02-05T09:20:02.459Z,39.24
2019-02-05T09:21:01.616Z,39.23
2019-02-05T09:22:01.614Z,39.28
2019-02-05T09:23:01.607Z,39.29
2019-02-05T09:24:01.763Z,39.49
2019-02-05T09:25:01.579Z,39.48
2019-02-05T09:26:01.926Z,39.6
2019-02-05T09:27:01.490Z,39.6
2019-02-05T09:28:04.567Z,39.71
2019-02-05T09:29:01.496Z,39.75
2019-02-05T09:30:01.608Z,39.76
2019-02-05T09:31:01.776Z,39.75
2019-02-05T09:32:01.998Z,39.77
2019-02-05T09:33:01.372Z,39.83
2019-02-05T09:34:01.566Z,39.81
2019-02-05T09:35:03.690Z,39.87
2019-02-05T09:36:01.640Z,39.8
2019-02-05T09:37:01.475Z,39.76
2019-02-05T09:38:02.023Z,39.81
2019-02-05T09:39:01.340Z,39.82
2019-02-05T09:40:01.502Z,39.8
2019-02-05T09:41:01.763Z,39.8
2019-02-05T09:42:02.066Z,39.84
2019-02-05T09:43:05.389Z,39.85
2019-02-05T09:44:01.515Z,39.89
2019-02-05T09:45:01.644Z,39.86
2019-02-05T09:46:01.454Z,39.94
2019-02-05T09:47:01.548Z,39.9
2019-02-05T09:48:01.495Z,39.86
2019-02-05T09:49:01.496Z,39.9
2019-02-05T09:50:04.105Z,39.9
2019-02-05T09:51:01.780Z,39.84
2019-02-05T09:52:01.964Z,39.87
2019-02-05T09:53:01.644Z,39.92
2019-02-05T09:54:01.469Z,39.91
2019-02-05T09:55:01.436Z,39.97
2019-02-05T09:56:01.600Z,39.96
2019-02-05T09:57:03.698Z,39.95
2019-02-05T09:58:02.114Z,39.93
2019-02-05T09:59:01.539Z,39.95
2019-02-05T10:00:01.521Z,39.99
2019-02-05T10:01:01.703Z,39.95
2019-02-05T10:02:01.515Z,39.99
2019-02-05T10:03:01.488Z,39.96
2019-02-05T10:04:02.511Z,39.98
2019-02-05T10:05:01.682Z,39.95
2019-02-05T10:06:01.665Z,39.97
2019-02-05T10:07:01.979Z,39.96
2019-02-05T10:08:02.024Z,39.99
2019-02-05T10:09:01.457Z,39.98
2019-02-05T10:10:02.047Z,40.03
2019-02-05T10:11:01.775Z,39.99
2019-02-05T10:12:03.759Z,40.02
2019-02-05T10:13:01.799Z,40
2019-02-05T10:14:01.605Z,39.92
2019-02-05T10:15:01.747Z,39.98
2019-02-05T10:16:01.917Z,39.87
2019-02-05T10:17:01.950Z,40.03
2019-02-05T10:18:01.644Z,39.95
2019-02-05T10:19:03.699Z,39.99
2019-02-05T10:20:02.007Z,39.98
2019-02-05T10:21:01.518Z,40.06
2019-02-05T10:22:01.503Z,39.96
2019-02-05T10:23:01.564Z,39.99
2019-02-05T10:24:01.516Z,39.99
2019-02-05T10:25:02.007Z,39.97
2019-02-05T10:26:01.663Z,39.96
2019-02-05T10:27:02.071Z,40.05
2019-02-05T10:28:01.619Z,40.02
2019-02-05T10:29:01.730Z,40.04
2019-02-05T10:30:01.552Z,40.02
2019-02-05T10:31:01.573Z,40.01
2019-02-05T10:32:01.357Z,39.94
2019-02-05T10:33:01.820Z,40.06
2019-02-05T10:34:03.504Z,40.02
2019-02-05T10:35:01.846Z,40.09
2019-02-05T10:36:01.994Z,40.01
2019-02-05T10:37:01.808Z,39.98
2019-02-05T10:38:01.724Z,39.98
2019-02-05T10:39:01.564Z,39.99
2019-02-05T10:40:01.666Z,40.04
2019-02-05T10:41:02.270Z,40.05
2019-02-05T10:42:01.721Z,40.07
2019-02-05T10:43:02.133Z,40.02
2019-02-05T10:44:03.253Z,40.03
2019-02-05T10:45:01.710Z,39.96
2019-02-05T10:46:02.057Z,39.98
2019-02-05T10:47:01.677Z,39.98
2019-02-05T10:48:01.594Z,39.98
2019-02-05T10:49:05.860Z,40.05
2019-02-05T10:50:01.637Z,39.96
2019-02-05T10:51:01.565Z,40
2019-02-05T10:52:02.195Z,40.02
2019-02-05T10:53:01.578Z,40.03
2019-02-05T10:54:01.596Z,40.01
2019-02-05T10:55:03.547Z,40.09
2019-02-05T10:56:04.072Z,40.05
2019-02-05T10:57:01.908Z,39.97
2019-02-05T10:58:01.727Z,39.99
2019-02-05T10:59:01.900Z,40.05
2019-02-05T11:00:09.932Z,39.96
2019-02-05T11:01:01.506Z,39.99
2019-02-05T11:02:02.666Z,40.02
2019-02-05T11:03:01.868Z,40.01
2019-02-05T11:04:01.940Z,40.07
2019-02-05T11:05:01.462Z,40.03
2019-02-05T11:06:01.729Z,40.03
2019-02-05T11:07:01.705Z,40.03
2019-02-05T11:08:01.882Z,40.04
2019-02-05T11:09:01.434Z,40.01
2019-02-05T11:10:01.705Z,40.02
2019-02-05T11:11:05.507Z,40.06
2019-02-05T11:12:02.460Z,40.03
2019-02-05T11:13:01.976Z,40.11
2019-02-05T11:14:01.542Z,39.98
2019-02-05T11:15:01.965Z,40.03
2019-02-05T11:16:02.145Z,39.99
2019-02-05T11:17:01.928Z,40.04
2019-02-05T11:18:03.888Z,40.09
2019-02-05T11:19:01.499Z,40.03
2019-02-05T11:20:01.587Z,40.04
2019-02-05T11:21:05.105Z,40.02
2019-02-05T11:22:01.898Z,40.06
2019-02-05T11:23:01.599Z,40.09
2019-02-05T11:24:01.258Z,40.03
2019-02-05T11:25:01.699Z,40.09
2019-02-05T11:26:01.544Z,40.08
2019-02-05T11:27:01.256Z,40.09
2019-02-05T11:28:01.867Z,40.23
2019-02-05T11:29:01.852Z,40.52
2019-02-05T11:30:01.605Z,40.56
2019-02-05T11:31:01.980Z,40.5
2019-02-05T11:32:01.356Z,40.48
2019-02-05T11:33:04.455Z,40.48
2019-02-05T11:34:01.577Z,40.55
2019-02-05T11:35:02.222Z,40.58
2019-02-05T11:36:01.681Z,40.54
2019-02-05T11:37:01.470Z,40.62
2019-02-05T11:38:01.628Z,40.52
2019-02-05T11:39:01.324Z,40.56
2019-02-05T11:40:03.494Z,40.53
2019-02-05T11:41:01.730Z,40.46
2019-02-05T11:42:01.373Z,40.42
2019-02-05T11:43:01.676Z,40.43
2019-02-05T11:44:01.901Z,40.42
2019-02-05T11:45:02.579Z,40.48
2019-02-05T11:46:01.744Z,40.36
2019-02-05T11:47:04.534Z,40.48
2019-02-05T11:48:02.602Z,40.52
2019-02-05T11:49:01.681Z,40.65
2019-02-05T11:50:02.518Z,40.53
2019-02-05T11:51:01.352Z,40.45
2019-02-05T11:52:02.068Z,40.42
2019-02-05T11:53:01.179Z,40.3
2019-02-05T11:54:01.510Z,40.3
2019-02-05T11:55:04.698Z,40.32
2019-02-05T11:56:02.211Z,40.08
2019-02-05T11:57:01.590Z,40.09
2019-02-05T11:58:02.023Z,40.07
2019-02-05T11:59:01.705Z,40.07
2019-02-05T12:00:01.770Z,40.03
2019-02-05T12:01:02.288Z,40.04
2019-02-05T12:02:02.843Z,40.02
2019-02-05T12:03:02.000Z,39.99
2019-02-05T12:04:02.087Z,40.04
2019-02-05T12:05:02.618Z,40.01
2019-02-05T12:06:01.828Z,40.3
2019-02-05T12:07:02.119Z,40.24
2019-02-05T12:08:03.561Z,40.22
2019-02-05T12:09:01.394Z,40.06
2019-02-05T12:10:04.396Z,40.01
2019-02-05T12:11:02.646Z,39.92
2019-02-05T12:12:01.629Z,39.88
2019-02-05T12:13:01.539Z,39.88
2019-02-05T12:14:02.221Z,39.91
2019-02-05T12:15:01.311Z,40.08
2019-02-05T12:16:02.296Z,40.17
2019-02-05T12:17:03.932Z,40.41
2019-02-05T12:18:01.981Z,40.38
2019-02-05T12:19:03.411Z,40.38
2019-02-05T12:20:01.395Z,40.39
2019-02-05T12:21:01.568Z,40.07
2019-02-05T12:22:01.501Z,39.9
2019-02-05T12:23:01.696Z,39.93
2019-02-05T12:24:03.782Z,39.79
2019-02-05T12:25:01.548Z,39.96
2019-02-05T12:26:02.119Z,39.76
2019-02-05T12:27:01.705Z,40.2
2019-02-05T12:28:01.448Z,40.3
2019-02-05T12:29:01.265Z,40.29
2019-02-05T12:30:02.042Z,40.26
2019-02-05T12:31:02.520Z,40.09
2019-02-05T12:32:02.340Z,40.28
2019-02-05T12:33:02.552Z,40.22
2019-02-05T12:34:01.767Z,40.13
2019-02-05T12:35:01.879Z,40.13
2019-02-05T12:36:01.559Z,40.56
2019-02-05T12:37:01.525Z,39.82
2019-02-05T12:38:01.972Z,39.89
2019-02-05T12:39:04.399Z,39.86
2019-02-05T12:40:01.965Z,39.84
2019-02-05T12:41:01.505Z,39.82
2019-02-05T12:42:03.146Z,39.85
2019-02-05T12:43:01.506Z,39.85
2019-02-05T12:44:02.046Z,39.81
2019-02-05T12:45:01.355Z,39.86
2019-02-05T12:46:02.433Z,39.81
2019-02-05T12:47:01.570Z,39.86
2019-02-05T12:48:01.678Z,39.84
2019-02-05T12:49:01.875Z,39.84
2019-02-05T12:50:01.796Z,39.86
2019-02-05T12:51:01.849Z,39.81
2019-02-05T12:52:01.484Z,39.84
2019-02-05T12:53:01.349Z,39.78
2019-02-05T12:54:03.995Z,39.77
2019-02-05T12:55:16.580Z,39.82
2019-02-05T12:56:02.052Z,39.86